ADZ weather

Gustavo Rojas Pinilla International Airport
San Andrés, San Andrés, Providencia y Santa Catalina Department, Colombia

Public forecast

Using degrees Celsius for public forecast. Weather courtesy of forecast.io.

Current aviation weather report (METAR) for Gustavo Rojas Pinilla International Airport

Retrieved 2020/07/16 03:00 UTC (4 minutes ago):

SKSP 160300Z 05007KT 9999 FEW014 SCT200 28/26 A2989

Aviation forecast (TAF) for Gustavo Rojas Pinilla International Airport

Retrieved 2020-07-16 00:40 UTC (2 hours ago):

TAF SKSP 152230Z 1600/1624 07010KT 9999 FEW015 BKN200 TX32/1569Z TN26/1610Z